Terminal Aerodrome Forecast
Issued by NWS

Home | Current Version | Previous Version | Text Only | Print | Product List | Glossary On
Versions: 1 2 3 4 5 6 7 8 9 10 11 12 13 14
141
FTUS42 KTBW 231129
TAFPGD
TAF
KPGD 231129Z 2312/2412 08006KT P6SM SCT025 SCT250
     FM231800 07008KT P6SM VCTS SCT030CB SCT100 BKN250
     FM232100 10007KT P6SM VCTS BKN035CB BKN100 OVC250
     FM240300 09004KT P6SM SCT040 SCT100 OVC250=

USA.gov is the U.S. government's official web portal to all federal, state and local government web resources and services.